sensor_id;sensor_type;location;lat;lon;timestamp;P1;durP1;ratioP1;P2;durP2;ratioP2
46455;SDS011;32154;47.160;8.120;2022-08-21T00:04:08;2.95;;;1.10;;
46455;SDS011;32154;47.160;8.120;2022-08-21T00:09:15;1.58;;;1.20;;
46455;SDS011;32154;47.160;8.120;2022-08-21T00:14:17;1.10;;;0.75;;
46455;SDS011;32154;47.160;8.120;2022-08-21T00:19:38;1.90;;;1.30;;
46455;SDS011;32154;47.160;8.120;2022-08-21T00:24:41;1.50;;;1.10;;
46455;SDS011;32154;47.160;8.120;2022-08-21T00:29:43;2.50;;;1.55;;
46455;SDS011;32154;47.160;8.120;2022-08-21T00:34:45;2.33;;;1.45;;
46455;SDS011;32154;47.160;8.120;2022-08-21T00:39:48;2.40;;;1.60;;
46455;SDS011;32154;47.160;8.120;2022-08-21T00:44:50;3.67;;;1.73;;
46455;SDS011;32154;47.160;8.120;2022-08-21T00:50:12;3.05;;;1.83;;
46455;SDS011;32154;47.160;8.120;2022-08-21T00:55:22;2.78;;;1.80;;
46455;SDS011;32154;47.160;8.120;2022-08-21T01:00:46;2.25;;;1.55;;
46455;SDS011;32154;47.160;8.120;2022-08-21T01:06:08;2.88;;;1.95;;
46455;SDS011;32154;47.160;8.120;2022-08-21T01:11:29;3.25;;;1.83;;
46455;SDS011;32154;47.160;8.120;2022-08-21T01:16:51;4.03;;;2.83;;
46455;SDS011;32154;47.160;8.120;2022-08-21T01:21:55;2.58;;;1.88;;
46455;SDS011;32154;47.160;8.120;2022-08-21T01:27:05;7.00;;;2.42;;
46455;SDS011;32154;47.160;8.120;2022-08-21T01:32:08;2.85;;;1.67;;
46455;SDS011;32154;47.160;8.120;2022-08-21T01:37:13;2.17;;;1.77;;
46455;SDS011;32154;47.160;8.120;2022-08-21T01:42:36;2.88;;;1.83;;
46455;SDS011;32154;47.160;8.120;2022-08-21T01:47:39;3.20;;;1.98;;
46455;SDS011;32154;47.160;8.120;2022-08-21T01:53:00;3.65;;;1.75;;
46455;SDS011;32154;47.160;8.120;2022-08-21T01:58:04;2.38;;;2.00;;
46455;SDS011;32154;47.160;8.120;2022-08-21T02:03:25;2.88;;;2.20;;
46455;SDS011;32154;47.160;8.120;2022-08-21T02:08:36;3.00;;;2.42;;
46455;SDS011;32154;47.160;8.120;2022-08-21T02:13:39;5.78;;;1.75;;
46455;SDS011;32154;47.160;8.120;2022-08-21T02:19:00;1.70;;;1.58;;
46455;SDS011;32154;47.160;8.120;2022-08-21T02:24:03;3.13;;;1.80;;
46455;SDS011;32154;47.160;8.120;2022-08-21T02:29:06;3.25;;;2.03;;
46455;SDS011;32154;47.160;8.120;2022-08-21T02:34:08;4.65;;;2.28;;
46455;SDS011;32154;47.160;8.120;2022-08-21T02:39:10;6.75;;;2.90;;
46455;SDS011;32154;47.160;8.120;2022-08-21T02:44:12;4.85;;;2.20;;
46455;SDS011;32154;47.160;8.120;2022-08-21T02:49:33;5.65;;;3.15;;
46455;SDS011;32154;47.160;8.120;2022-08-21T02:54:53;5.07;;;2.38;;
46455;SDS011;32154;47.160;8.120;2022-08-21T02:59:59;3.22;;;1.90;;
46455;SDS011;32154;47.160;8.120;2022-08-21T03:05:19;3.22;;;1.92;;
46455;SDS011;32154;47.160;8.120;2022-08-21T03:10:41;4.15;;;1.90;;
46455;SDS011;32154;47.160;8.120;2022-08-21T03:15:49;4.22;;;1.83;;
46455;SDS011;32154;47.160;8.120;2022-08-21T03:21:10;3.92;;;1.90;;
46455;SDS011;32154;47.160;8.120;2022-08-21T03:26:31;4.50;;;2.28;;
46455;SDS011;32154;47.160;8.120;2022-08-21T03:31:52;5.70;;;2.65;;
46455;SDS011;32154;47.160;8.120;2022-08-21T03:36:54;2.42;;;1.48;;
46455;SDS011;32154;47.160;8.120;2022-08-21T03:42:15;4.72;;;1.85;;
46455;SDS011;32154;47.160;8.120;2022-08-21T03:47:18;3.88;;;1.70;;
46455;SDS011;32154;47.160;8.120;2022-08-21T03:52:20;2.92;;;1.63;;
46455;SDS011;32154;47.160;8.120;2022-08-21T03:57:23;2.20;;;1.60;;
46455;SDS011;32154;47.160;8.120;2022-08-21T04:02:25;2.30;;;1.88;;
46455;SDS011;32154;47.160;8.120;2022-08-21T04:07:27;2.63;;;1.80;;
46455;SDS011;32154;47.160;8.120;2022-08-21T04:12:29;2.67;;;1.70;;
46455;SDS011;32154;47.160;8.120;2022-08-21T04:17:53;8.63;;;2.17;;
46455;SDS011;32154;47.160;8.120;2022-08-21T04:22:56;4.50;;;1.80;;
46455;SDS011;32154;47.160;8.120;2022-08-21T04:27:58;7.45;;;1.95;;
46455;SDS011;32154;47.160;8.120;2022-08-21T04:33:22;3.05;;;2.10;;
46455;SDS011;32154;47.160;8.120;2022-08-21T04:38:24;4.65;;;2.08;;
46455;SDS011;32154;47.160;8.120;2022-08-21T04:43:34;3.50;;;1.80;;
46455;SDS011;32154;47.160;8.120;2022-08-21T04:48:37;3.45;;;2.30;;
46455;SDS011;32154;47.160;8.120;2022-08-21T04:53:49;4.35;;;2.30;;
46455;SDS011;32154;47.160;8.120;2022-08-21T04:58:55;4.22;;;2.65;;
46455;SDS011;32154;47.160;8.120;2022-08-21T05:04:02;6.18;;;3.22;;
46455;SDS011;32154;47.160;8.120;2022-08-21T05:09:07;6.45;;;2.47;;
46455;SDS011;32154;47.160;8.120;2022-08-21T05:14:31;4.80;;;2.42;;
46455;SDS011;32154;47.160;8.120;2022-08-21T05:19:34;6.63;;;2.28;;
46455;SDS011;32154;47.160;8.120;2022-08-21T05:24:37;4.13;;;2.45;;
46455;SDS011;32154;47.160;8.120;2022-08-21T05:29:39;4.70;;;2.65;;
46455;SDS011;32154;47.160;8.120;2022-08-21T05:34:41;2.55;;;2.25;;
46455;SDS011;32154;47.160;8.120;2022-08-21T05:39:43;3.92;;;2.35;;
46455;SDS011;32154;47.160;8.120;2022-08-21T05:45:06;5.82;;;2.35;;
46455;SDS011;32154;47.160;8.120;2022-08-21T05:50:08;3.85;;;2.47;;
46455;SDS011;32154;47.160;8.120;2022-08-21T05:55:30;2.67;;;2.30;;
46455;SDS011;32154;47.160;8.120;2022-08-21T06:00:52;2.88;;;1.90;;
46455;SDS011;32154;47.160;8.120;2022-08-21T06:06:13;2.92;;;1.95;;
46455;SDS011;32154;47.160;8.120;2022-08-21T06:11:15;3.17;;;2.00;;
46455;SDS011;32154;47.160;8.120;2022-08-21T06:16:17;3.53;;;2.10;;
46455;SDS011;32154;47.160;8.120;2022-08-21T06:21:20;3.47;;;2.00;;
46455;SDS011;32154;47.160;8.120;2022-08-21T06:26:22;2.28;;;1.73;;
46455;SDS011;32154;47.160;8.120;2022-08-21T06:31:25;2.88;;;1.88;;
46455;SDS011;32154;47.160;8.120;2022-08-21T06:36:29;2.70;;;1.73;;
46455;SDS011;32154;47.160;8.120;2022-08-21T06:41:49;3.30;;;1.98;;
46455;SDS011;32154;47.160;8.120;2022-08-21T06:46:52;3.17;;;1.75;;
46455;SDS011;32154;47.160;8.120;2022-08-21T06:52:13;3.22;;;2.30;;
46455;SDS011;32154;47.160;8.120;2022-08-21T06:57:34;2.95;;;2.05;;
46455;SDS011;32154;47.160;8.120;2022-08-21T07:02:36;2.65;;;1.92;;
46455;SDS011;32154;47.160;8.120;2022-08-21T07:07:42;3.63;;;2.20;;
46455;SDS011;32154;47.160;8.120;2022-08-21T07:12:45;2.08;;;1.73;;
46455;SDS011;32154;47.160;8.120;2022-08-21T07:17:47;2.78;;;2.00;;
46455;SDS011;32154;47.160;8.120;2022-08-21T07:22:50;3.50;;;2.22;;
46455;SDS011;32154;47.160;8.120;2022-08-21T07:28:11;3.22;;;2.67;;
46455;SDS011;32154;47.160;8.120;2022-08-21T07:33:13;2.65;;;1.80;;
46455;SDS011;32154;47.160;8.120;2022-08-21T07:38:15;6.70;;;2.28;;
46455;SDS011;32154;47.160;8.120;2022-08-21T07:43:36;4.75;;;2.35;;
46455;SDS011;32154;47.160;8.120;2022-08-21T07:48:46;2.17;;;1.95;;
46455;SDS011;32154;47.160;8.120;2022-08-21T07:53:50;2.22;;;1.50;;
46455;SDS011;32154;47.160;8.120;2022-08-21T07:58:54;4.32;;;2.45;;
46455;SDS011;32154;47.160;8.120;2022-08-21T08:03:56;3.17;;;2.25;;
46455;SDS011;32154;47.160;8.120;2022-08-21T08:09:17;2.53;;;1.88;;
46455;SDS011;32154;47.160;8.120;2022-08-21T08:14:38;2.20;;;1.75;;
46455;SDS011;32154;47.160;8.120;2022-08-21T08:19:58;2.95;;;2.20;;
46455;SDS011;32154;47.160;8.120;2022-08-21T08:25:23;2.67;;;2.03;;
46455;SDS011;32154;47.160;8.120;2022-08-21T08:30:45;3.63;;;2.22;;
46455;SDS011;32154;47.160;8.120;2022-08-21T08:36:11;2.72;;;1.83;;
46455;SDS011;32154;47.160;8.120;2022-08-21T08:41:23;2.30;;;1.95;;
46455;SDS011;32154;47.160;8.120;2022-08-21T08:46:33;3.03;;;2.20;;
46455;SDS011;32154;47.160;8.120;2022-08-21T08:56:56;2.80;;;1.80;;
46455;SDS011;32154;47.160;8.120;2022-08-21T09:02:00;2.00;;;1.40;;
46455;SDS011;32154;47.160;8.120;2022-08-21T09:13:07;2.10;;;1.45;;
46455;SDS011;32154;47.160;8.120;2022-08-21T09:29:04;3.03;;;1.80;;
46455;SDS011;32154;47.160;8.120;2022-08-21T09:34:28;2.22;;;1.40;;
46455;SDS011;32154;47.160;8.120;2022-08-21T09:39:37;1.67;;;1.20;;
46455;SDS011;32154;47.160;8.120;2022-08-21T09:44:46;2.40;;;1.60;;
46455;SDS011;32154;47.160;8.120;2022-08-21T09:49:48;1.80;;;1.30;;
46455;SDS011;32154;47.160;8.120;2022-08-21T09:54:52;1.98;;;1.38;;
46455;SDS011;32154;47.160;8.120;2022-08-21T10:00:19;1.90;;;1.48;;
46455;SDS011;32154;47.160;8.120;2022-08-21T10:05:22;1.95;;;1.60;;
46455;SDS011;32154;47.160;8.120;2022-08-21T10:10:31;2.10;;;1.40;;
46455;SDS011;32154;47.160;8.120;2022-08-21T10:21:21;2.10;;;1.10;;
46455;SDS011;32154;47.160;8.120;2022-08-21T10:26:35;1.50;;;1.27;;
46455;SDS011;32154;47.160;8.120;2022-08-21T10:42:31;1.33;;;1.08;;
46455;SDS011;32154;47.160;8.120;2022-08-21T10:58:25;1.07;;;0.80;;
46455;SDS011;32154;47.160;8.120;2022-08-21T11:04:16;1.83;;;0.90;;
46455;SDS011;32154;47.160;8.120;2022-08-21T11:09:30;1.02;;;0.88;;
46455;SDS011;32154;47.160;8.120;2022-08-21T11:20:33;0.85;;;0.63;;
46455;SDS011;32154;47.160;8.120;2022-08-21T11:25:44;0.88;;;0.70;;
46455;SDS011;32154;47.160;8.120;2022-08-21T11:47:15;0.63;;;0.38;;
46455;SDS011;32154;47.160;8.120;2022-08-21T11:52:37;1.73;;;0.47;;
46455;SDS011;32154;47.160;8.120;2022-08-21T11:57:53;0.50;;;0.40;;
46455;SDS011;32154;47.160;8.120;2022-08-21T12:03:07;0.65;;;0.40;;
46455;SDS011;32154;47.160;8.120;2022-08-21T12:08:34;0.70;;;0.20;;
46455;SDS011;32154;47.160;8.120;2022-08-21T12:13:52;0.90;;;0.47;;
46455;SDS011;32154;47.160;8.120;2022-08-21T12:29:51;0.60;;;0.40;;
46455;SDS011;32154;47.160;8.120;2022-08-21T12:35:07;0.52;;;0.40;;
46455;SDS011;32154;47.160;8.120;2022-08-21T12:46:57;0.65;;;0.30;;
46455;SDS011;32154;47.160;8.120;2022-08-21T12:57:40;0.70;;;0.47;;
46455;SDS011;32154;47.160;8.120;2022-08-21T13:02:43;0.60;;;0.40;;
46455;SDS011;32154;47.160;8.120;2022-08-21T13:07:49;0.82;;;0.52;;
46455;SDS011;32154;47.160;8.120;2022-08-21T13:13:12;0.95;;;0.60;;
46455;SDS011;32154;47.160;8.120;2022-08-21T13:18:30;0.30;;;0.30;;
46455;SDS011;32154;47.160;8.120;2022-08-21T13:23:53;0.70;;;0.40;;
46455;SDS011;32154;47.160;8.120;2022-08-21T13:29:15;0.63;;;0.32;;
46455;SDS011;32154;47.160;8.120;2022-08-21T13:34:41;1.85;;;0.50;;
46455;SDS011;32154;47.160;8.120;2022-08-21T13:39:48;1.42;;;0.60;;
46455;SDS011;32154;47.160;8.120;2022-08-21T13:45:13;0.63;;;0.40;;
46455;SDS011;32154;47.160;8.120;2022-08-21T13:50:18;1.80;;;0.45;;
46455;SDS011;32154;47.160;8.120;2022-08-21T13:55:24;1.48;;;0.50;;
46455;SDS011;32154;47.160;8.120;2022-08-21T14:00:53;0.77;;;0.30;;
46455;SDS011;32154;47.160;8.120;2022-08-21T14:06:20;0.80;;;0.30;;
46455;SDS011;32154;47.160;8.120;2022-08-21T14:11:43;0.60;;;0.47;;
46455;SDS011;32154;47.160;8.120;2022-08-21T14:17:01;1.83;;;0.60;;
46455;SDS011;32154;47.160;8.120;2022-08-21T14:22:45;0.52;;;0.50;;
46455;SDS011;32154;47.160;8.120;2022-08-21T14:27:50;0.55;;;0.47;;
46455;SDS011;32154;47.160;8.120;2022-08-21T14:32:54;0.90;;;0.47;;
46455;SDS011;32154;47.160;8.120;2022-08-21T14:37:58;0.40;;;0.40;;
46455;SDS011;32154;47.160;8.120;2022-08-21T14:43:00;0.30;;;0.30;;
46455;SDS011;32154;47.160;8.120;2022-08-21T14:48:21;1.85;;;0.40;;
46455;SDS011;32154;47.160;8.120;2022-08-21T14:53:24;0.80;;;0.32;;
46455;SDS011;32154;47.160;8.120;2022-08-21T14:58:46;0.77;;;0.30;;
46455;SDS011;32154;47.160;8.120;2022-08-21T15:04:08;0.93;;;0.85;;
46455;SDS011;32154;47.160;8.120;2022-08-21T15:09:29;0.80;;;0.65;;
46455;SDS011;32154;47.160;8.120;2022-08-21T15:14:33;0.68;;;0.38;;
46455;SDS011;32154;47.160;8.120;2022-08-21T15:19:38;0.80;;;0.50;;
46455;SDS011;32154;47.160;8.120;2022-08-21T15:24:40;0.60;;;0.38;;
46455;SDS011;32154;47.160;8.120;2022-08-21T15:29:42;0.60;;;0.60;;
46455;SDS011;32154;47.160;8.120;2022-08-21T15:34:51;0.50;;;0.30;;
46455;SDS011;32154;47.160;8.120;2022-08-21T15:39:54;0.75;;;0.55;;
46455;SDS011;32154;47.160;8.120;2022-08-21T15:45:14;0.68;;;0.50;;
46455;SDS011;32154;47.160;8.120;2022-08-21T15:50:18;1.02;;;0.43;;
46455;SDS011;32154;47.160;8.120;2022-08-21T15:55:21;0.47;;;0.32;;
46455;SDS011;32154;47.160;8.120;2022-08-21T16:00:25;1.08;;;0.57;;
46455;SDS011;32154;47.160;8.120;2022-08-21T16:05:35;1.83;;;0.47;;
46455;SDS011;32154;47.160;8.120;2022-08-21T16:10:56;0.60;;;0.35;;
46455;SDS011;32154;47.160;8.120;2022-08-21T16:15:59;0.57;;;0.30;;
46455;SDS011;32154;47.160;8.120;2022-08-21T16:21:19;1.27;;;0.60;;
46455;SDS011;32154;47.160;8.120;2022-08-21T16:26:48;1.10;;;0.60;;
46455;SDS011;32154;47.160;8.120;2022-08-21T16:32:01;0.85;;;0.50;;
46455;SDS011;32154;47.160;8.120;2022-08-21T16:37:05;0.70;;;0.50;;
46455;SDS011;32154;47.160;8.120;2022-08-21T16:42:10;0.70;;;0.60;;
46455;SDS011;32154;47.160;8.120;2022-08-21T16:47:20;1.52;;;0.80;;
46455;SDS011;32154;47.160;8.120;2022-08-21T16:52:28;0.68;;;0.43;;
46455;SDS011;32154;47.160;8.120;2022-08-21T16:57:30;1.73;;;0.68;;
46455;SDS011;32154;47.160;8.120;2022-08-21T17:02:52;1.48;;;0.98;;
46455;SDS011;32154;47.160;8.120;2022-08-21T17:07:56;0.93;;;0.63;;
46455;SDS011;32154;47.160;8.120;2022-08-21T17:13:02;1.17;;;0.32;;
46455;SDS011;32154;47.160;8.120;2022-08-21T17:18:12;0.85;;;0.50;;
46455;SDS011;32154;47.160;8.120;2022-08-21T17:23:17;0.57;;;0.40;;
46455;SDS011;32154;47.160;8.120;2022-08-21T17:28:27;0.50;;;0.30;;
46455;SDS011;32154;47.160;8.120;2022-08-21T17:33:53;0.75;;;0.50;;
46455;SDS011;32154;47.160;8.120;2022-08-21T17:38:57;1.15;;;0.32;;
46455;SDS011;32154;47.160;8.120;2022-08-21T17:44:18;1.25;;;0.60;;
46455;SDS011;32154;47.160;8.120;2022-08-21T17:49:22;0.38;;;0.38;;
46455;SDS011;32154;47.160;8.120;2022-08-21T17:54:43;0.50;;;0.40;;
46455;SDS011;32154;47.160;8.120;2022-08-21T17:59:46;0.60;;;0.50;;
46455;SDS011;32154;47.160;8.120;2022-08-21T18:04:48;0.75;;;0.50;;
46455;SDS011;32154;47.160;8.120;2022-08-21T18:10:10;0.70;;;0.60;;
46455;SDS011;32154;47.160;8.120;2022-08-21T18:15:32;1.33;;;0.90;;
46455;SDS011;32154;47.160;8.120;2022-08-21T18:20:35;0.65;;;0.52;;
46455;SDS011;32154;47.160;8.120;2022-08-21T18:25:56;2.45;;;1.52;;
46455;SDS011;32154;47.160;8.120;2022-08-21T18:30:59;1.00;;;0.77;;
46455;SDS011;32154;47.160;8.120;2022-08-21T18:36:02;1.20;;;0.73;;
46455;SDS011;32154;47.160;8.120;2022-08-21T18:41:24;0.80;;;0.77;;
46455;SDS011;32154;47.160;8.120;2022-08-21T18:46:27;0.90;;;0.60;;
46455;SDS011;32154;47.160;8.120;2022-08-21T18:51:29;1.17;;;0.70;;
46455;SDS011;32154;47.160;8.120;2022-08-21T18:56:33;1.05;;;0.73;;
46455;SDS011;32154;47.160;8.120;2022-08-21T19:01:54;1.50;;;0.77;;
46455;SDS011;32154;47.160;8.120;2022-08-21T19:06:58;2.15;;;1.40;;
46455;SDS011;32154;47.160;8.120;2022-08-21T19:12:19;1.85;;;1.27;;
46455;SDS011;32154;47.160;8.120;2022-08-21T19:17:30;1.65;;;0.90;;
46455;SDS011;32154;47.160;8.120;2022-08-21T19:22:33;1.65;;;1.05;;
46455;SDS011;32154;47.160;8.120;2022-08-21T19:27:42;1.85;;;1.10;;
46455;SDS011;32154;47.160;8.120;2022-08-21T19:32:45;2.92;;;1.08;;
46455;SDS011;32154;47.160;8.120;2022-08-21T19:37:49;1.15;;;0.80;;
46455;SDS011;32154;47.160;8.120;2022-08-21T19:42:53;1.70;;;0.80;;
46455;SDS011;32154;47.160;8.120;2022-08-21T19:48:14;2.42;;;1.48;;
46455;SDS011;32154;47.160;8.120;2022-08-21T19:53:19;2.13;;;1.17;;
46455;SDS011;32154;47.160;8.120;2022-08-21T19:58:37;2.97;;;1.10;;
46455;SDS011;32154;47.160;8.120;2022-08-21T20:03:40;2.67;;;1.70;;
46455;SDS011;32154;47.160;8.120;2022-08-21T20:08:44;1.70;;;1.27;;
46455;SDS011;32154;47.160;8.120;2022-08-21T20:13:47;2.78;;;1.48;;
46455;SDS011;32154;47.160;8.120;2022-08-21T20:18:50;2.28;;;1.42;;
46455;SDS011;32154;47.160;8.120;2022-08-21T20:23:52;2.85;;;1.17;;
46455;SDS011;32154;47.160;8.120;2022-08-21T20:28:55;2.47;;;1.52;;
46455;SDS011;32154;47.160;8.120;2022-08-21T20:33:58;3.95;;;1.88;;
46455;SDS011;32154;47.160;8.120;2022-08-21T20:39:00;2.53;;;1.50;;
46455;SDS011;32154;47.160;8.120;2022-08-21T20:44:04;3.45;;;1.25;;
46455;SDS011;32154;47.160;8.120;2022-08-21T20:49:15;4.18;;;1.55;;
46455;SDS011;32154;47.160;8.120;2022-08-21T21:10:03;2.58;;;1.30;;
46455;SDS011;32154;47.160;8.120;2022-08-21T21:15:33;2.00;;;1.13;;
46455;SDS011;32154;47.160;8.120;2022-08-21T21:20:57;1.77;;;1.13;;
46455;SDS011;32154;47.160;8.120;2022-08-21T21:26:13;3.03;;;1.73;;
46455;SDS011;32154;47.160;8.120;2022-08-21T21:31:21;2.60;;;1.50;;
46455;SDS011;32154;47.160;8.120;2022-08-21T21:36:29;3.08;;;1.60;;
46455;SDS011;32154;47.160;8.120;2022-08-21T21:42:16;2.72;;;1.60;;
46455;SDS011;32154;47.160;8.120;2022-08-21T22:04:00;1.52;;;1.15;;
46455;SDS011;32154;47.160;8.120;2022-08-21T22:14:42;3.15;;;1.20;;
46455;SDS011;32154;47.160;8.120;2022-08-21T22:25:51;2.55;;;1.70;;
46455;SDS011;32154;47.160;8.120;2022-08-21T22:36:28;2.58;;;1.40;;
46455;SDS011;32154;47.160;8.120;2022-08-21T22:41:43;2.75;;;1.42;;
46455;SDS011;32154;47.160;8.120;2022-08-21T22:46:49;1.42;;;1.13;;
46455;SDS011;32154;47.160;8.120;2022-08-21T22:57:30;2.90;;;1.20;;
46455;SDS011;32154;47.160;8.120;2022-08-21T23:02:38;1.92;;;1.45;;
46455;SDS011;32154;47.160;8.120;2022-08-21T23:07:44;3.28;;;1.58;;
46455;SDS011;32154;47.160;8.120;2022-08-21T23:12:51;3.95;;;1.55;;
46455;SDS011;32154;47.160;8.120;2022-08-21T23:23:27;1.67;;;1.30;;
46455;SDS011;32154;47.160;8.120;2022-08-21T23:28:39;2.65;;;1.40;;
46455;SDS011;32154;47.160;8.120;2022-08-21T23:33:58;2.70;;;1.52;;
46455;SDS011;32154;47.160;8.120;2022-08-21T23:49:56;3.15;;;1.58;;
